Terminal Aerodrome Forecast
Issued by NWS

Home | Current Version | Previous Version | Text Only | Print | Product List | Glossary On
Versions: 1 2 3 4 5 6 7 8 9 10 11 12 13 14 15 16 17 18
168
FTUS43 KIND 140123 AAA
TAFLAF
TAF AMD
KLAF 140123Z 1401/1424 27014G28KT P6SM OVC020
     FM140300 30016G24KT P6SM VCSH OVC025
     FM140600 32013KT P6SM VCSH BKN025
     FM140800 34010KT P6SM VCSH BKN030
     FM141200 36006KT P6SM VCSH BKN025
     FM141600 36005KT P6SM VCSH BKN030
     FM141800 34004KT P6SM BKN060
      AMD LTD TO CLD VIS AND WIND 1402/1414=

USA.gov is the U.S. government's official web portal to all federal, state and local government web resources and services.